Terminal Aerodrome Forecast
Issued by NWS

Home | Current Version | Previous Version | Text Only | Print | Product List | Glossary On
Versions: 1 2 3 4 5 6 7 8 9 10 11 12 13 14 15 16 17 18
000
FTUS45 KSLC 292352
TAFOGD
TAF
KOGD 292352Z 3000/3024 36006KT P6SM FEW080
     FM300300 17005KT P6SM FEW120
     FM301900 26008KT P6SM BKN080 BKN200=

USA.gov is the U.S. government's official web portal to all federal, state and local government web resources and services.